sensor_id;sensor_type;location;lat;lon;timestamp;pressure;altitude;pressure_sealevel;temperature;humidity
27805;BME280;15183;51.350;11.102;2023-04-05T00:01:54;100856.50;;;3.73;55.62
27805;BME280;15183;51.350;11.102;2023-04-05T00:04:21;100891.72;;;3.97;55.75
27805;BME280;15183;51.350;11.102;2023-04-05T00:06:48;100923.78;;;4.17;56.08
27805;BME280;15183;51.350;11.102;2023-04-05T00:09:19;100918.69;;;4.15;55.74
27805;BME280;15183;51.350;11.102;2023-04-05T00:11:48;100898.97;;;4.03;55.91
27805;BME280;15183;51.350;11.102;2023-04-05T00:14:15;100917.88;;;4.15;56.18
27805;BME280;15183;51.350;11.102;2023-04-05T00:16:41;100912.84;;;4.22;56.08
27805;BME280;15183;51.350;11.102;2023-04-05T00:19:08;100916.63;;;4.27;55.87
27805;BME280;15183;51.350;11.102;2023-04-05T00:21:38;100906.13;;;4.27;56.31
27805;BME280;15183;51.350;11.102;2023-04-05T00:24:05;100905.03;;;4.38;55.99
27805;BME280;15183;51.350;11.102;2023-04-05T00:26:32;100883.66;;;4.25;55.86
27805;BME280;15183;51.350;11.102;2023-04-05T00:28:59;100859.31;;;4.06;56.07
27805;BME280;15183;51.350;11.102;2023-04-05T00:31:25;100913.28;;;4.52;56.01
27805;BME280;15183;51.350;11.102;2023-04-05T00:33:51;100899.34;;;4.51;55.76
27805;BME280;15183;51.350;11.102;2023-04-05T00:36:19;100906.56;;;4.57;55.76
27805;BME280;15183;51.350;11.102;2023-04-05T00:38:47;100911.50;;;4.60;56.20
27805;BME280;15183;51.350;11.102;2023-04-05T00:41:15;100905.28;;;4.61;55.65
27805;BME280;15183;51.350;11.102;2023-04-05T00:43:42;100904.63;;;4.59;55.99
27805;BME280;15183;51.350;11.102;2023-04-05T00:46:08;100885.03;;;4.45;55.72
27805;BME280;15183;51.350;11.102;2023-04-05T00:48:35;100903.50;;;4.62;56.00
27805;BME280;15183;51.350;11.102;2023-04-05T00:51:02;100910.69;;;4.60;55.73
27805;BME280;15183;51.350;11.102;2023-04-05T00:53:30;100909.19;;;4.57;56.00
27805;BME280;15183;51.350;11.102;2023-04-05T00:55:57;100866.47;;;4.30;56.17
27805;BME280;15183;51.350;11.102;2023-04-05T00:58:23;100904.59;;;4.51;56.37
27805;BME280;15183;51.350;11.102;2023-04-05T01:03:28;100870.38;;;4.26;56.03
27805;BME280;15183;51.350;11.102;2023-04-05T01:06:21;100884.03;;;4.38;56.44
27805;BME280;15183;51.350;11.102;2023-04-05T01:09:01;100868.56;;;4.18;56.10
27805;BME280;15183;51.350;11.102;2023-04-05T01:11:32;100865.44;;;4.15;56.16
27805;BME280;15183;51.350;11.102;2023-04-05T01:14:00;100891.88;;;4.30;56.03
27805;BME280;15183;51.350;11.102;2023-04-05T01:16:27;100803.97;;;3.74;56.46
27805;BME280;15183;51.350;11.102;2023-04-05T01:18:54;100815.31;;;3.83;56.36
27805;BME280;15183;51.350;11.102;2023-04-05T01:30:36;100880.38;;;4.23;56.65
27805;BME280;15183;51.350;11.102;2023-04-05T01:33:14;100885.63;;;4.23;56.41
27805;BME280;15183;51.350;11.102;2023-04-05T01:35:54;100891.69;;;4.23;56.74
27805;BME280;15183;51.350;11.102;2023-04-05T01:38:26;100871.78;;;4.12;56.76
27805;BME280;15183;51.350;11.102;2023-04-05T01:40:54;100871.44;;;4.07;56.67
27805;BME280;15183;51.350;11.102;2023-04-05T01:43:20;100879.66;;;4.12;56.53
27805;BME280;15183;51.350;11.102;2023-04-05T01:45:47;100847.78;;;3.90;56.79
27805;BME280;15183;51.350;11.102;2023-04-05T01:48:13;100853.19;;;3.97;56.65
27805;BME280;15183;51.350;11.102;2023-04-05T01:50:40;100849.78;;;3.97;56.55
27805;BME280;15183;51.350;11.102;2023-04-05T01:53:07;100862.25;;;4.03;56.45
27805;BME280;15183;51.350;11.102;2023-04-05T01:55:34;100861.59;;;4.01;56.44
27805;BME280;15183;51.350;11.102;2023-04-05T01:58:00;100865.19;;;4.00;56.62
27805;BME280;15183;51.350;11.102;2023-04-05T02:00:27;100855.97;;;3.87;56.88
27805;BME280;15183;51.350;11.102;2023-04-05T02:02:53;100853.13;;;3.81;56.63
27805;BME280;15183;51.350;11.102;2023-04-05T02:05:20;100842.59;;;3.72;56.75
27805;BME280;15183;51.350;11.102;2023-04-05T02:07:48;100864.28;;;3.83;56.63
27805;BME280;15183;51.350;11.102;2023-04-05T02:10:14;100871.47;;;3.81;56.94
27805;BME280;15183;51.350;11.102;2023-04-05T02:12:41;100847.63;;;3.66;56.80
27805;BME280;15183;51.350;11.102;2023-04-05T02:15:08;100847.50;;;3.67;57.04
27805;BME280;15183;51.350;11.102;2023-04-05T02:17:34;100841.41;;;3.67;56.68
27805;BME280;15183;51.350;11.102;2023-04-05T02:20:06;100887.09;;;3.90;57.11
27805;BME280;15183;51.350;11.102;2023-04-05T02:22:33;100848.50;;;3.74;57.06
27805;BME280;15183;51.350;11.102;2023-04-05T02:25:00;100861.56;;;3.93;57.19
27805;BME280;15183;51.350;11.102;2023-04-05T02:27:26;100851.88;;;3.93;56.70
27805;BME280;15183;51.350;11.102;2023-04-05T02:29:53;100868.03;;;4.07;56.94
27805;BME280;15183;51.350;11.102;2023-04-05T02:32:20;100869.50;;;4.09;56.88
27805;BME280;15183;51.350;11.102;2023-04-05T02:34:47;100856.19;;;4.02;56.87
27805;BME280;15183;51.350;11.102;2023-04-05T02:37:13;100870.66;;;4.15;56.71
27805;BME280;15183;51.350;11.102;2023-04-05T02:39:40;100871.34;;;4.17;56.62
27805;BME280;15183;51.350;11.102;2023-04-05T02:42:06;100866.72;;;4.11;56.57
27805;BME280;15183;51.350;11.102;2023-04-05T02:44:32;100867.06;;;4.16;56.73
27805;BME280;15183;51.350;11.102;2023-04-05T02:46:59;100861.97;;;4.14;56.93
27805;BME280;15183;51.350;11.102;2023-04-05T02:49:25;100830.59;;;3.96;56.47
27805;BME280;15183;51.350;11.102;2023-04-05T02:51:52;100863.78;;;4.14;56.69
27805;BME280;15183;51.350;11.102;2023-04-05T02:54:18;100841.59;;;4.00;56.93
27805;BME280;15183;51.350;11.102;2023-04-05T02:56:44;100852.13;;;4.16;56.60
27805;BME280;15183;51.350;11.102;2023-04-05T02:59:11;100847.94;;;4.24;56.37
27805;BME280;15183;51.350;11.102;2023-04-05T03:01:39;100847.28;;;4.30;56.48
27805;BME280;15183;51.350;11.102;2023-04-05T03:04:09;100847.31;;;4.38;56.83
27805;BME280;15183;51.350;11.102;2023-04-05T03:06:38;100857.88;;;4.55;56.20
27805;BME280;15183;51.350;11.102;2023-04-05T03:09:05;100848.31;;;4.54;56.20
27805;BME280;15183;51.350;11.102;2023-04-05T03:11:32;100846.53;;;4.54;56.10
27805;BME280;15183;51.350;11.102;2023-04-05T03:13:58;100875.09;;;4.66;56.21
27805;BME280;15183;51.350;11.102;2023-04-05T03:16:25;100862.81;;;4.66;56.04
27805;BME280;15183;51.350;11.102;2023-04-05T03:18:51;100841.75;;;4.49;56.14
27805;BME280;15183;51.350;11.102;2023-04-05T03:21:18;100852.13;;;4.59;56.65
27805;BME280;15183;51.350;11.102;2023-04-05T03:23:44;100804.03;;;4.34;56.30
27805;BME280;15183;51.350;11.102;2023-04-05T03:26:11;100846.41;;;4.64;56.52
27805;BME280;15183;51.350;11.102;2023-04-05T03:28:41;100828.81;;;4.48;56.36
27805;BME280;15183;51.350;11.102;2023-04-05T03:31:11;100849.50;;;4.59;56.78
27805;BME280;15183;51.350;11.102;2023-04-05T03:33:37;100841.81;;;4.58;56.67
27805;BME280;15183;51.350;11.102;2023-04-05T03:36:04;100827.34;;;4.54;56.53
27805;BME280;15183;51.350;11.102;2023-04-05T03:38:31;100845.56;;;4.72;56.67
27805;BME280;15183;51.350;11.102;2023-04-05T03:40:57;100849.84;;;4.73;56.70
27805;BME280;15183;51.350;11.102;2023-04-05T03:43:24;100826.88;;;4.58;56.57
27805;BME280;15183;51.350;11.102;2023-04-05T03:45:50;100847.38;;;4.55;56.61
27805;BME280;15183;51.350;11.102;2023-04-05T03:48:17;100850.44;;;4.42;56.73
27805;BME280;15183;51.350;11.102;2023-04-05T03:50:46;100850.56;;;4.32;56.35
27805;BME280;15183;51.350;11.102;2023-04-05T03:53:12;100849.88;;;4.22;56.68
27805;BME280;15183;51.350;11.102;2023-04-05T03:55:39;100836.34;;;4.00;56.44
27805;BME280;15183;51.350;11.102;2023-04-05T03:58:05;100836.31;;;3.91;56.61
27805;BME280;15183;51.350;11.102;2023-04-05T04:00:31;100849.78;;;3.97;57.02
27805;BME280;15183;51.350;11.102;2023-04-05T04:02:58;100846.50;;;3.95;57.04
27805;BME280;15183;51.350;11.102;2023-04-05T04:05:24;100790.91;;;3.56;57.64
27805;BME280;15183;51.350;11.102;2023-04-05T04:07:51;100835.03;;;3.96;57.47
27805;BME280;15183;51.350;11.102;2023-04-05T04:10:17;100816.31;;;3.90;57.34
27805;BME280;15183;51.350;11.102;2023-04-05T04:12:44;100836.56;;;4.15;57.36
27805;BME280;15183;51.350;11.102;2023-04-05T04:15:11;100844.47;;;4.23;57.03
27805;BME280;15183;51.350;11.102;2023-04-05T04:17:38;100834.09;;;4.13;56.93
27805;BME280;15183;51.350;11.102;2023-04-05T04:20:06;100828.72;;;4.15;57.22
27805;BME280;15183;51.350;11.102;2023-04-05T04:22:37;100843.03;;;4.29;57.20
27805;BME280;15183;51.350;11.102;2023-04-05T04:25:09;100825.97;;;4.25;57.21
27805;BME280;15183;51.350;11.102;2023-04-05T04:27:40;100815.28;;;4.26;57.15
27805;BME280;15183;51.350;11.102;2023-04-05T04:30:10;100813.34;;;4.28;57.14
27805;BME280;15183;51.350;11.102;2023-04-05T04:32:38;100840.44;;;4.54;57.22
27805;BME280;15183;51.350;11.102;2023-04-05T04:35:25;100842.59;;;4.58;56.73
27805;BME280;15183;51.350;11.102;2023-04-05T04:38:02;100820.16;;;4.56;56.98
27805;BME280;15183;51.350;11.102;2023-04-05T04:40:35;100827.72;;;4.75;56.69
27805;BME280;15183;51.350;11.102;2023-04-05T04:43:08;100828.56;;;4.84;56.56
27805;BME280;15183;51.350;11.102;2023-04-05T04:45:48;100833.16;;;4.99;56.74
27805;BME280;15183;51.350;11.102;2023-04-05T04:48:15;100837.59;;;5.15;56.83
27805;BME280;15183;51.350;11.102;2023-04-05T04:50:43;100838.22;;;5.25;56.11
27805;BME280;15183;51.350;11.102;2023-04-05T04:53:11;100831.00;;;5.35;56.69
27805;BME280;15183;51.350;11.102;2023-04-05T04:55:39;100835.59;;;5.50;56.22
27805;BME280;15183;51.350;11.102;2023-04-05T04:58:08;100842.63;;;5.58;56.27
27805;BME280;15183;51.350;11.102;2023-04-05T05:00:41;100844.59;;;5.64;55.94
27805;BME280;15183;51.350;11.102;2023-04-05T05:03:10;100846.41;;;5.72;56.16
27805;BME280;15183;51.350;11.102;2023-04-05T05:05:43;100847.50;;;5.77;56.10
27805;BME280;15183;51.350;11.102;2023-04-05T05:08:10;100821.44;;;5.59;55.55
27805;BME280;15183;51.350;11.102;2023-04-05T05:10:36;100822.41;;;5.58;55.37
27805;BME280;15183;51.350;11.102;2023-04-05T05:13:03;100848.03;;;5.73;55.63
27805;BME280;15183;51.350;11.102;2023-04-05T05:15:29;100835.06;;;5.63;55.55
27805;BME280;15183;51.350;11.102;2023-04-05T05:17:55;100814.72;;;5.57;55.79
27805;BME280;15183;51.350;11.102;2023-04-05T05:20:24;100839.97;;;5.74;55.73
27805;BME280;15183;51.350;11.102;2023-04-05T05:22:54;100843.88;;;5.87;55.85
27805;BME280;15183;51.350;11.102;2023-04-05T05:25:21;100839.75;;;5.92;56.00
27805;BME280;15183;51.350;11.102;2023-04-05T05:27:49;100834.50;;;5.92;55.86
27805;BME280;15183;51.350;11.102;2023-04-05T05:30:16;100816.25;;;5.91;56.07
27805;BME280;15183;51.350;11.102;2023-04-05T05:32:43;100829.88;;;6.03;55.66
27805;BME280;15183;51.350;11.102;2023-04-05T05:35:09;100844.97;;;6.17;56.15
27805;BME280;15183;51.350;11.102;2023-04-05T05:37:36;100841.00;;;6.21;55.83
27805;BME280;15183;51.350;11.102;2023-04-05T05:40:03;100846.22;;;6.30;55.69
27805;BME280;15183;51.350;11.102;2023-04-05T05:42:30;100839.00;;;6.23;55.64
27805;BME280;15183;51.350;11.102;2023-04-05T05:45:04;100825.94;;;6.07;55.58
27805;BME280;15183;51.350;11.102;2023-04-05T05:47:31;100831.66;;;6.11;55.91
27805;BME280;15183;51.350;11.102;2023-04-05T05:49:59;100821.31;;;6.01;56.00
27805;BME280;15183;51.350;11.102;2023-04-05T05:52:25;100837.03;;;6.26;56.19
27805;BME280;15183;51.350;11.102;2023-04-05T05:54:51;100836.28;;;6.40;55.72
27805;BME280;15183;51.350;11.102;2023-04-05T05:57:18;100781.03;;;6.08;55.54
27805;BME280;15183;51.350;11.102;2023-04-05T05:59:45;100803.59;;;6.34;55.81
27805;BME280;15183;51.350;11.102;2023-04-05T06:02:11;100825.47;;;6.58;55.86
27805;BME280;15183;51.350;11.102;2023-04-05T06:04:38;100834.34;;;6.65;55.67
27805;BME280;15183;51.350;11.102;2023-04-05T06:07:04;100832.38;;;6.59;55.71
27805;BME280;15183;51.350;11.102;2023-04-05T06:09:31;100822.56;;;6.53;55.82
27805;BME280;15183;51.350;11.102;2023-04-05T06:12:00;100817.59;;;6.58;55.87
27805;BME280;15183;51.350;11.102;2023-04-05T06:14:26;100815.50;;;6.54;55.76
27805;BME280;15183;51.350;11.102;2023-04-05T06:16:55;100843.00;;;6.74;55.21
27805;BME280;15183;51.350;11.102;2023-04-05T06:19:21;100828.25;;;6.65;55.63
27805;BME280;15183;51.350;11.102;2023-04-05T06:21:48;100841.47;;;6.80;55.90
27805;BME280;15183;51.350;11.102;2023-04-05T06:24:14;100839.00;;;6.78;55.87
27805;BME280;15183;51.350;11.102;2023-04-05T06:26:41;100832.00;;;6.71;55.65
27805;BME280;15183;51.350;11.102;2023-04-05T06:29:07;100849.38;;;6.80;55.83
27805;BME280;15183;51.350;11.102;2023-04-05T06:31:34;100817.66;;;6.73;55.78
27805;BME280;15183;51.350;11.102;2023-04-05T06:34:01;100833.34;;;6.90;56.10
27805;BME280;15183;51.350;11.102;2023-04-05T06:36:29;100833.56;;;7.03;55.55
27805;BME280;15183;51.350;11.102;2023-04-05T06:38:57;100823.59;;;7.14;55.23
27805;BME280;15183;51.350;11.102;2023-04-05T06:41:23;100840.91;;;7.31;55.29
27805;BME280;15183;51.350;11.102;2023-04-05T06:43:49;100826.91;;;7.31;55.56
27805;BME280;15183;51.350;11.102;2023-04-05T06:46:16;100825.63;;;7.27;55.06
27805;BME280;15183;51.350;11.102;2023-04-05T06:48:42;100849.09;;;7.36;55.26
27805;BME280;15183;51.350;11.102;2023-04-05T06:51:09;100844.00;;;7.35;55.51
27805;BME280;15183;51.350;11.102;2023-04-05T06:53:36;100843.22;;;7.49;55.61
27805;BME280;15183;51.350;11.102;2023-04-05T06:56:03;100823.03;;;7.42;55.46
27805;BME280;15183;51.350;11.102;2023-04-05T06:58:29;100837.88;;;7.58;55.43
27805;BME280;15183;51.350;11.102;2023-04-05T07:00:56;100843.69;;;7.68;55.10
27805;BME280;15183;51.350;11.102;2023-04-05T07:03:22;100813.31;;;7.72;55.22
27805;BME280;15183;51.350;11.102;2023-04-05T07:05:59;100845.31;;;7.99;54.91
27805;BME280;15183;51.350;11.102;2023-04-05T07:08:27;100837.88;;;8.03;55.04
27805;BME280;15183;51.350;11.102;2023-04-05T07:10:54;100844.03;;;8.25;54.61
27805;BME280;15183;51.350;11.102;2023-04-05T07:13:22;100837.19;;;8.31;54.53
27805;BME280;15183;51.350;11.102;2023-04-05T07:15:49;100838.09;;;8.38;55.05
27805;BME280;15183;51.350;11.102;2023-04-05T07:18:17;100837.25;;;8.52;54.70
27805;BME280;15183;51.350;11.102;2023-04-05T07:20:47;100849.66;;;8.74;54.54
27805;BME280;15183;51.350;11.102;2023-04-05T07:23:16;100822.00;;;8.69;54.55
27805;BME280;15183;51.350;11.102;2023-04-05T07:25:43;100829.66;;;8.86;54.33
27805;BME280;15183;51.350;11.102;2023-04-05T07:28:09;100838.28;;;8.95;54.11
27805;BME280;15183;51.350;11.102;2023-04-05T07:30:36;100842.81;;;9.01;54.19
27805;BME280;15183;51.350;11.102;2023-04-05T07:33:03;100817.44;;;8.85;53.97
27805;BME280;15183;51.350;11.102;2023-04-05T07:35:29;100829.16;;;8.97;53.75
27805;BME280;15183;51.350;11.102;2023-04-05T07:37:56;100834.31;;;9.06;54.08
27805;BME280;15183;51.350;11.102;2023-04-05T07:40:22;100827.19;;;9.06;53.87
27805;BME280;15183;51.350;11.102;2023-04-05T07:42:49;100828.66;;;9.09;53.77
27805;BME280;15183;51.350;11.102;2023-04-05T07:45:15;100825.63;;;9.12;53.55
27805;BME280;15183;51.350;11.102;2023-04-05T07:47:41;100835.88;;;9.22;53.70
27805;BME280;15183;51.350;11.102;2023-04-05T07:50:08;100840.53;;;9.20;53.56
27805;BME280;15183;51.350;11.102;2023-04-05T07:52:37;100829.09;;;9.12;53.77
27805;BME280;15183;51.350;11.102;2023-04-05T07:55:03;100755.50;;;8.66;53.49
27805;BME280;15183;51.350;11.102;2023-04-05T07:57:30;100836.56;;;9.31;53.47
27805;BME280;15183;51.350;11.102;2023-04-05T07:59:56;100838.22;;;9.38;53.57
27805;BME280;15183;51.350;11.102;2023-04-05T08:02:23;100768.78;;;9.01;53.36
27805;BME280;15183;51.350;11.102;2023-04-05T08:04:49;100826.72;;;9.24;53.43
27805;BME280;15183;51.350;11.102;2023-04-05T08:07:16;100809.38;;;9.15;53.28
27805;BME280;15183;51.350;11.102;2023-04-05T08:09:42;100831.25;;;9.31;53.61
27805;BME280;15183;51.350;11.102;2023-04-05T08:12:09;100816.97;;;9.25;53.86
27805;BME280;15183;51.350;11.102;2023-04-05T08:14:36;100785.16;;;9.11;52.97
27805;BME280;15183;51.350;11.102;2023-04-05T08:17:02;100827.94;;;9.50;53.29
27805;BME280;15183;51.350;11.102;2023-04-05T08:19:29;100788.50;;;9.27;53.10
27805;BME280;15183;51.350;11.102;2023-04-05T08:21:56;100816.16;;;9.53;52.97
27805;BME280;15183;51.350;11.102;2023-04-05T08:24:22;100829.50;;;9.73;53.26
27805;BME280;15183;51.350;11.102;2023-04-05T08:26:48;100824.09;;;9.88;52.76
27805;BME280;15183;51.350;11.102;2023-04-05T08:29:15;100802.28;;;9.86;52.32
27805;BME280;15183;51.350;11.102;2023-04-05T08:31:41;100806.41;;;9.95;52.40
27805;BME280;15183;51.350;11.102;2023-04-05T08:34:08;100803.53;;;9.90;52.04
27805;BME280;15183;51.350;11.102;2023-04-05T08:36:34;100812.34;;;10.04;51.57
27805;BME280;15183;51.350;11.102;2023-04-05T08:39:01;100753.75;;;9.65;51.37
27805;BME280;15183;51.350;11.102;2023-04-05T08:41:34;100819.50;;;10.17;51.52
27805;BME280;15183;51.350;11.102;2023-04-05T08:44:03;100812.22;;;10.26;51.18
27805;BME280;15183;51.350;11.102;2023-04-05T08:46:33;100818.00;;;10.43;50.78
27805;BME280;15183;51.350;11.102;2023-04-05T08:49:04;100799.63;;;10.35;50.82
27805;BME280;15183;51.350;11.102;2023-04-05T08:51:31;100780.84;;;10.36;50.70
27805;BME280;15183;51.350;11.102;2023-04-05T08:53:59;100810.50;;;10.67;50.53
27805;BME280;15183;51.350;11.102;2023-04-05T08:56:32;100816.66;;;10.81;50.36
27805;BME280;15183;51.350;11.102;2023-04-05T08:59:07;100814.00;;;10.88;49.85
27805;BME280;15183;51.350;11.102;2023-04-05T09:01:42;100818.88;;;10.91;50.02
27805;BME280;15183;51.350;11.102;2023-04-05T09:04:14;100807.47;;;10.97;50.15
27805;BME280;15183;51.350;11.102;2023-04-05T09:06:43;100813.38;;;11.06;49.41
27805;BME280;15183;51.350;11.102;2023-04-05T09:09:10;100803.59;;;11.06;49.98
27805;BME280;15183;51.350;11.102;2023-04-05T09:11:37;100818.06;;;11.24;49.60
27805;BME280;15183;51.350;11.102;2023-04-05T09:14:05;100806.47;;;11.18;49.85
27805;BME280;15183;51.350;11.102;2023-04-05T09:16:37;100792.38;;;11.11;50.08
27805;BME280;15183;51.350;11.102;2023-04-05T09:19:04;100783.59;;;11.24;50.29
27805;BME280;15183;51.350;11.102;2023-04-05T09:25:40;100802.50;;;11.54;50.14
27805;BME280;15183;51.350;11.102;2023-04-05T09:28:08;100810.66;;;11.66;50.16
27805;BME280;15183;51.350;11.102;2023-04-05T09:30:35;100809.81;;;11.79;49.85
27805;BME280;15183;51.350;11.102;2023-04-05T09:33:03;100792.00;;;11.86;50.13
27805;BME280;15183;51.350;11.102;2023-04-05T09:35:32;100789.28;;;12.07;49.96
27805;BME280;15183;51.350;11.102;2023-04-05T09:38:03;100765.28;;;12.27;48.93
27805;BME280;15183;51.350;11.102;2023-04-05T09:40:47;100787.88;;;12.75;48.29
27805;BME280;15183;51.350;11.102;2023-04-05T09:43:38;100799.00;;;13.16;47.50
27805;BME280;15183;51.350;11.102;2023-04-05T09:46:04;100803.88;;;13.44;47.01
27805;BME280;15183;51.350;11.102;2023-04-05T09:48:50;100780.22;;;13.55;46.29
27805;BME280;15183;51.350;11.102;2023-04-05T09:51:17;100737.22;;;13.32;46.46
27805;BME280;15183;51.350;11.102;2023-04-05T09:53:58;100791.66;;;13.74;45.77
27805;BME280;15183;51.350;11.102;2023-04-05T09:56:32;100791.47;;;13.75;45.65
27805;BME280;15183;51.350;11.102;2023-04-05T09:59:10;100782.56;;;13.82;44.95
27805;BME280;15183;51.350;11.102;2023-04-05T10:01:41;100781.81;;;13.93;45.33
27805;BME280;15183;51.350;11.102;2023-04-05T10:04:08;100765.16;;;13.98;45.09
27805;BME280;15183;51.350;11.102;2023-04-05T10:06:39;100776.72;;;14.22;44.78
27805;BME280;15183;51.350;11.102;2023-04-05T10:09:08;100786.66;;;14.45;44.54
27805;BME280;15183;51.350;11.102;2023-04-05T10:11:36;100785.44;;;14.60;44.03
27805;BME280;15183;51.350;11.102;2023-04-05T10:14:07;100784.66;;;14.71;43.52
27805;BME280;15183;51.350;11.102;2023-04-05T10:16:52;100774.91;;;14.77;43.84
27805;BME280;15183;51.350;11.102;2023-04-05T10:22:14;100754.03;;;14.86;43.43
27805;BME280;15183;51.350;11.102;2023-04-05T10:24:53;100782.13;;;15.12;43.25
27805;BME280;15183;51.350;11.102;2023-04-05T10:27:29;100764.84;;;15.15;42.37
27805;BME280;15183;51.350;11.102;2023-04-05T10:30:05;100747.78;;;15.04;41.85
27805;BME280;15183;51.350;11.102;2023-04-05T10:39:04;100758.56;;;15.09;42.26
27805;BME280;15183;51.350;11.102;2023-04-05T10:41:47;100750.81;;;15.08;41.77
27805;BME280;15183;51.350;11.102;2023-04-05T10:44:14;100764.50;;;15.23;41.93
27805;BME280;15183;51.350;11.102;2023-04-05T10:46:41;100755.69;;;15.34;41.70
27805;BME280;15183;51.350;11.102;2023-04-05T10:49:36;100762.25;;;15.56;41.38
27805;BME280;15183;51.350;11.102;2023-04-05T10:52:05;100762.69;;;15.65;40.92
27805;BME280;15183;51.350;11.102;2023-04-05T10:54:33;100738.28;;;15.73;41.21
27805;BME280;15183;51.350;11.102;2023-04-05T10:57:07;100732.66;;;15.86;40.73
27805;BME280;15183;51.350;11.102;2023-04-05T10:59:35;100743.94;;;16.17;40.41
27805;BME280;15183;51.350;11.102;2023-04-05T11:02:05;100729.03;;;16.22;40.32
27805;BME280;15183;51.350;11.102;2023-04-05T11:04:32;100751.66;;;16.48;40.47
27805;BME280;15183;51.350;11.102;2023-04-05T11:07:16;100745.34;;;16.54;39.61
27805;BME280;15183;51.350;11.102;2023-04-05T11:09:59;100739.34;;;16.64;39.49
27805;BME280;15183;51.350;11.102;2023-04-05T11:18:20;100728.78;;;16.74;39.39
27805;BME280;15183;51.350;11.102;2023-04-05T11:21:06;100725.97;;;16.81;39.54
27805;BME280;15183;51.350;11.102;2023-04-05T11:24:06;100684.38;;;16.56;40.03
27805;BME280;15183;51.350;11.102;2023-04-05T11:26:55;100728.66;;;16.98;39.76
27805;BME280;15183;51.350;11.102;2023-04-05T11:29:49;100717.13;;;16.98;40.00
27805;BME280;15183;51.350;11.102;2023-04-05T11:32:16;100723.91;;;17.05;39.60
27805;BME280;15183;51.350;11.102;2023-04-05T11:34:43;100714.03;;;17.06;39.37
27805;BME280;15183;51.350;11.102;2023-04-05T11:37:10;100719.19;;;17.13;39.25
27805;BME280;15183;51.350;11.102;2023-04-05T11:39:36;100693.47;;;16.95;38.48
27805;BME280;15183;51.350;11.102;2023-04-05T11:42:10;100716.44;;;17.07;38.73
27805;BME280;15183;51.350;11.102;2023-04-05T11:44:47;100717.00;;;17.10;38.31
27805;BME280;15183;51.350;11.102;2023-04-05T11:47:18;100702.66;;;16.99;37.48
27805;BME280;15183;51.350;11.102;2023-04-05T11:49:51;100707.38;;;16.91;37.48
27805;BME280;15183;51.350;11.102;2023-04-05T11:52:20;100697.81;;;16.78;37.11
27805;BME280;15183;51.350;11.102;2023-04-05T11:54:46;100700.84;;;16.65;37.47
27805;BME280;15183;51.350;11.102;2023-04-05T11:57:19;100671.41;;;16.48;37.37
27805;BME280;15183;51.350;11.102;2023-04-05T11:59:50;100698.56;;;16.74;38.01
27805;BME280;15183;51.350;11.102;2023-04-05T12:02:17;100686.16;;;16.68;37.37
27805;BME280;15183;51.350;11.102;2023-04-05T12:04:43;100649.69;;;16.44;36.82
27805;BME280;15183;51.350;11.102;2023-04-05T12:10:00;100695.25;;;16.49;36.83
27805;BME280;15183;51.350;11.102;2023-04-05T12:12:39;100690.22;;;16.36;36.65
27805;BME280;15183;51.350;11.102;2023-04-05T12:15:09;100677.75;;;16.25;36.69
27805;BME280;15183;51.350;11.102;2023-04-05T12:17:41;100691.53;;;16.33;35.62
27805;BME280;15183;51.350;11.102;2023-04-05T12:20:10;100691.53;;;16.33;36.88
27805;BME280;15183;51.350;11.102;2023-04-05T12:22:38;100685.13;;;16.34;36.65
27805;BME280;15183;51.350;11.102;2023-04-05T12:25:06;100673.44;;;16.41;36.80
27805;BME280;15183;51.350;11.102;2023-04-05T12:27:33;100662.19;;;16.39;36.02
27805;BME280;15183;51.350;11.102;2023-04-05T12:32:49;100608.09;;;15.68;35.82
27805;BME280;15183;51.350;11.102;2023-04-05T12:35:19;100671.91;;;16.11;36.10
27805;BME280;15183;51.350;11.102;2023-04-05T12:37:46;100667.91;;;15.96;36.04
27805;BME280;15183;51.350;11.102;2023-04-05T12:40:20;100654.00;;;15.82;34.70
27805;BME280;15183;51.350;11.102;2023-04-05T12:42:47;100644.03;;;15.48;35.03
27805;BME280;15183;51.350;11.102;2023-04-05T12:45:14;100649.75;;;15.40;35.38
27805;BME280;15183;51.350;11.102;2023-04-05T12:47:58;100634.97;;;15.21;34.97
27805;BME280;15183;51.350;11.102;2023-04-05T12:50:30;100655.75;;;15.18;35.47
27805;BME280;15183;51.350;11.102;2023-04-05T12:53:04;100653.09;;;15.07;35.35
27805;BME280;15183;51.350;11.102;2023-04-05T12:55:31;100648.38;;;14.97;36.00
27805;BME280;15183;51.350;11.102;2023-04-05T12:58:00;100631.78;;;14.83;36.36
27805;BME280;15183;51.350;11.102;2023-04-05T13:00:28;100633.75;;;14.87;36.88
27805;BME280;15183;51.350;11.102;2023-04-05T13:02:57;100645.78;;;15.02;36.76
27805;BME280;15183;51.350;11.102;2023-04-05T13:05:27;100642.56;;;15.00;35.95
27805;BME280;15183;51.350;11.102;2023-04-05T13:07:53;100627.28;;;14.83;35.80
27805;BME280;15183;51.350;11.102;2023-04-05T13:10:22;100637.34;;;14.69;35.48
27805;BME280;15183;51.350;11.102;2023-04-05T13:12:49;100646.59;;;14.55;35.48
27805;BME280;15183;51.350;11.102;2023-04-05T13:15:17;100635.03;;;14.37;35.54
27805;BME280;15183;51.350;11.102;2023-04-05T13:17:44;100639.06;;;14.28;36.56
27805;BME280;15183;51.350;11.102;2023-04-05T13:20:15;100606.63;;;14.19;37.15
27805;BME280;15183;51.350;11.102;2023-04-05T13:22:43;100616.72;;;14.29;37.84
27805;BME280;15183;51.350;11.102;2023-04-05T13:25:09;100598.50;;;14.26;37.45
27805;BME280;15183;51.350;11.102;2023-04-05T13:27:36;100606.38;;;14.32;37.35
27805;BME280;15183;51.350;11.102;2023-04-05T13:30:03;100625.16;;;14.38;37.57
27805;BME280;15183;51.350;11.102;2023-04-05T13:32:29;100607.22;;;14.33;37.74